createdAt,value
2018-04-19T00:01:17.958Z,74.40
2018-04-19T00:03:46.142Z,74.30
2018-04-19T00:06:14.334Z,74.50
2018-04-19T00:08:42.518Z,74.40
2018-04-19T00:11:10.726Z,74.60
2018-04-19T00:13:38.142Z,74.60
2018-04-19T00:16:05.683Z,74.80
2018-04-19T00:18:33.182Z,74.50
2018-04-19T00:21:00.715Z,74.40
2018-04-19T00:23:28.195Z,74.20
2018-04-19T00:25:55.654Z,74.10
2018-04-19T00:28:23.074Z,74.40
2018-04-19T00:30:50.503Z,74.50
2018-04-19T00:33:17.964Z,74.30
2018-04-19T00:35:45.448Z,74.00
2018-04-19T00:38:12.906Z,73.90
2018-04-19T00:40:40.375Z,74.50
2018-04-19T00:43:07.794Z,74.70
2018-04-19T00:45:35.317Z,74.50
2018-04-19T00:48:02.787Z,74.50
2018-04-19T00:50:30.222Z,74.90
2018-04-19T00:53:09.515Z,76.00
2018-04-19T00:55:36.939Z,75.90
2018-04-19T00:58:05.122Z,76.00
2018-04-19T01:00:33.322Z,75.90
2018-04-19T01:03:01.506Z,75.50
2018-04-19T01:05:29.729Z,75.40
2018-04-19T01:07:57.196Z,75.40
2018-04-19T01:10:24.617Z,75.20
2018-04-19T01:12:52.034Z,75.40
2018-04-19T01:15:19.477Z,75.50
2018-04-19T01:17:47.687Z,75.40
2018-04-19T01:20:15.107Z,75.20
2018-04-19T01:22:42.530Z,75.60
2018-04-19T01:25:09.954Z,75.40
2018-04-19T01:27:37.459Z,75.70
2018-04-19T01:30:04.898Z,75.60
2018-04-19T01:32:33.327Z,76.30
2018-04-19T01:35:00.765Z,75.40
2018-04-19T01:37:28.978Z,75.50
2018-04-19T01:39:56.403Z,75.50
2018-04-19T01:42:23.828Z,75.80
2018-04-19T01:44:51.291Z,75.60
2018-04-19T01:47:18.706Z,75.70
2018-04-19T01:49:46.225Z,75.70
2018-04-19T01:52:13.642Z,75.70
2018-04-19T01:54:41.840Z,76.00
2018-04-19T01:57:09.254Z,76.10
2018-04-19T01:59:36.718Z,76.30
2018-04-19T02:02:04.137Z,76.40
2018-04-19T02:04:31.562Z,76.90
2018-04-19T02:06:58.974Z,76.70
2018-04-19T02:09:26.506Z,76.60
2018-04-19T02:11:53.921Z,76.60
2018-04-19T02:14:22.844Z,77.10
2018-04-19T02:16:51.055Z,78.10
2018-04-19T02:19:18.529Z,78.10
2018-04-19T02:21:45.995Z,78.50
2018-04-19T02:24:13.466Z,78.50
2018-04-19T02:26:40.967Z,78.30
2018-04-19T02:29:08.411Z,78.20
2018-04-19T02:31:35.875Z,78.60
2018-04-19T02:34:03.295Z,79.20
2018-04-19T02:36:30.723Z,80.00
2018-04-19T02:38:58.142Z,80.70
2018-04-19T02:41:25.655Z,81.00
2018-04-19T02:43:53.069Z,80.70
2018-04-19T02:46:20.520Z,80.30
2018-04-19T02:48:47.938Z,80.00
2018-04-19T02:51:16.150Z,80.40
2018-04-19T02:53:43.570Z,80.40
2018-04-19T02:56:11.001Z,80.80
2018-04-19T02:58:38.427Z,80.90
2018-04-19T03:01:06.623Z,80.50
2018-04-19T03:03:34.810Z,80.60
2018-04-19T03:06:03.019Z,80.70
2018-04-19T03:08:30.492Z,80.70
2018-04-19T03:10:57.963Z,80.20
2018-04-19T03:13:25.434Z,80.20
2018-04-19T03:15:52.862Z,80.00
2018-04-19T03:18:20.365Z,80.00
2018-04-19T03:20:47.790Z,79.90
2018-04-19T03:23:15.207Z,79.70
2018-04-19T03:25:42.675Z,79.60
2018-04-19T03:28:10.110Z,79.50
2018-04-19T03:30:38.335Z,79.50
2018-04-19T03:33:05.750Z,79.20
2018-04-19T03:35:33.406Z,79.10
2018-04-19T03:38:00.739Z,79.00
2018-04-19T03:40:28.163Z,79.20
2018-04-19T03:42:55.586Z,79.20
2018-04-19T03:45:23.014Z,78.90
2018-04-19T03:47:51.204Z,78.60
2018-04-19T03:50:19.392Z,79.10
2018-04-19T03:52:47.570Z,79.00
2018-04-19T03:55:15.762Z,79.70
2018-04-19T03:57:43.942Z,79.30
2018-04-19T04:00:12.166Z,79.90
2018-04-19T04:02:39.606Z,80.40
2018-04-19T04:05:08.532Z,81.60
2018-04-19T04:07:35.946Z,81.60
2018-04-19T04:10:03.487Z,81.60
2018-04-19T04:12:30.902Z,81.70
2018-04-19T04:14:59.853Z,82.90
2018-04-19T04:17:39.191Z,82.90
2018-04-19T04:20:12.535Z,82.80
2018-04-19T04:22:51.943Z,83.30
2018-04-19T04:25:20.130Z,83.10
2018-04-19T04:27:48.338Z,82.80
2018-04-19T04:30:15.812Z,82.80
2018-04-19T04:32:43.230Z,82.80
2018-04-19T04:35:10.642Z,82.80
2018-04-19T04:37:38.117Z,82.90
2018-04-19T04:40:06.507Z,82.70
2018-04-19T04:42:33.970Z,82.30
2018-04-19T04:45:01.394Z,82.00
2018-04-19T04:47:28.822Z,81.60
2018-04-19T04:49:56.296Z,81.60
2018-04-19T04:52:23.757Z,81.60
2018-04-19T04:54:51.174Z,81.60
2018-04-19T04:57:20.111Z,81.60
2018-04-19T04:59:47.593Z,81.50
2018-04-19T05:02:15.023Z,82.10
2018-04-19T05:04:42.438Z,82.40
2018-04-19T05:07:09.870Z,82.10
2018-04-19T05:09:38.091Z,82.10
2018-04-19T05:12:05.514Z,82.10
2018-04-19T05:14:33.035Z,82.00
2018-04-19T05:17:00.455Z,81.70
2018-04-19T05:19:27.879Z,81.80
2018-04-19T05:21:55.303Z,81.90
2018-04-19T05:24:23.527Z,81.50
2018-04-19T05:26:50.955Z,81.50
2018-04-19T05:29:19.155Z,81.90
2018-04-19T05:31:47.416Z,81.20
2018-04-19T05:34:14.783Z,81.20
2018-04-19T05:36:43.006Z,80.30
2018-04-19T05:39:11.190Z,80.00
2018-04-19T05:41:39.395Z,80.00
2018-04-19T05:44:06.819Z,79.90
2018-04-19T05:46:34.247Z,80.20
2018-04-19T05:49:01.684Z,80.00
2018-04-19T05:51:29.098Z,80.20
2018-04-19T05:53:56.539Z,80.40
2018-04-19T05:56:23.975Z,80.50
2018-04-19T05:58:51.403Z,79.50
2018-04-19T06:01:18.834Z,79.10
2018-04-19T06:03:46.317Z,78.90
2018-04-19T06:06:13.753Z,80.00
2018-04-19T06:08:41.223Z,79.20
2018-04-19T06:11:08.622Z,79.60
2018-04-19T06:13:36.039Z,79.00
2018-04-19T06:16:03.463Z,78.40
2018-04-19T06:18:30.889Z,77.70
2018-04-19T06:20:58.411Z,77.70
2018-04-19T06:23:25.871Z,79.20
2018-04-19T06:25:53.307Z,77.90
2018-04-19T06:28:20.814Z,77.40
2018-04-19T06:30:48.233Z,78.00
2018-04-19T06:33:15.763Z,76.90
2018-04-19T06:35:43.187Z,77.00
2018-04-19T06:38:10.606Z,75.90
2018-04-19T06:40:38.027Z,74.10
2018-04-19T06:43:06.222Z,74.30
2018-04-19T06:45:34.431Z,73.00
2018-04-19T06:48:01.866Z,73.00
2018-04-19T06:50:29.373Z,73.90
2018-04-19T06:52:56.797Z,74.90
2018-04-19T06:55:24.218Z,72.30
2018-04-19T06:57:51.650Z,71.60
2018-04-19T07:00:19.830Z,71.80
2018-04-19T07:02:48.022Z,71.20
2018-04-19T07:05:16.210Z,71.10
2018-04-19T07:07:44.408Z,70.50
2018-04-19T07:10:12.618Z,70.40
2018-04-19T07:12:40.052Z,70.40
2018-04-19T07:15:08.238Z,69.00
2018-04-19T07:17:35.751Z,68.90
2018-04-19T07:20:03.214Z,69.20
2018-04-19T07:22:30.642Z,69.10
2018-04-19T07:24:58.069Z,68.50
2018-04-19T07:27:25.494Z,68.90
2018-04-19T07:29:53.681Z,68.80
2018-04-19T07:32:21.918Z,67.40
2018-04-19T07:34:49.368Z,67.40
2018-04-19T07:37:16.797Z,67.60
2018-04-19T07:39:44.214Z,69.00
2018-04-19T07:42:11.645Z,68.50
2018-04-19T07:44:39.854Z,67.10
2018-04-19T07:47:07.286Z,67.10
2018-04-19T07:49:34.757Z,67.00
2018-04-19T07:52:02.965Z,67.10
2018-04-19T07:54:31.147Z,67.60
2018-04-19T07:56:59.347Z,68.10
2018-04-19T07:59:26.766Z,68.10
2018-04-19T08:01:55.737Z,66.90
2018-04-19T08:04:23.203Z,66.90
2018-04-19T08:06:50.632Z,64.90
2018-04-19T08:09:18.143Z,66.80
2018-04-19T08:11:45.614Z,64.30
2018-04-19T08:14:13.082Z,64.70
2018-04-19T08:16:40.550Z,66.30
2018-04-19T08:19:07.966Z,64.60
2018-04-19T08:21:36.203Z,63.20
2018-04-19T08:24:03.628Z,63.10
2018-04-19T08:26:31.049Z,64.20
2018-04-19T08:28:58.470Z,64.20
2018-04-19T08:31:25.891Z,64.10
2018-04-19T08:33:53.307Z,63.80
2018-04-19T08:36:20.821Z,60.80
2018-04-19T08:38:48.237Z,60.10
2018-04-19T08:41:15.666Z,58.20
2018-04-19T08:43:43.090Z,58.60
2018-04-19T08:46:10.510Z,56.80
2018-04-19T08:48:37.938Z,52.40
2018-04-19T08:51:06.132Z,52.10
2018-04-19T08:53:34.325Z,53.00
2018-04-19T08:56:01.809Z,53.00
2018-04-19T08:58:29.230Z,53.20
2018-04-19T09:00:56.751Z,53.70
2018-04-19T09:03:24.178Z,55.10
2018-04-19T09:05:51.603Z,54.10
2018-04-19T09:08:19.021Z,53.90
2018-04-19T09:10:47.209Z,51.50
2018-04-19T09:13:15.402Z,52.50
2018-04-19T09:15:43.615Z,49.20
2018-04-19T09:18:11.041Z,49.10
2018-04-19T09:20:38.558Z,48.10
2018-04-19T09:23:06.010Z,48.30
2018-04-19T09:25:33.602Z,49.20
2018-04-19T09:28:01.034Z,44.80
2018-04-19T09:30:29.252Z,45.30
2018-04-19T09:32:56.676Z,45.10
2018-04-19T09:35:24.103Z,45.50
2018-04-19T09:37:51.531Z,41.60
2018-04-19T09:40:19.746Z,42.30
2018-04-19T09:42:47.166Z,42.20
2018-04-19T09:45:14.690Z,43.30
2018-04-19T09:47:42.102Z,41.60
2018-04-19T09:50:09.535Z,41.00
2018-04-19T09:52:36.955Z,44.70
2018-04-19T09:55:04.475Z,38.80
2018-04-19T09:57:31.931Z,37.60
2018-04-19T09:59:59.359Z,40.40
2018-04-19T10:02:28.574Z,38.40
2018-04-19T10:05:01.906Z,35.60
2018-04-19T10:07:29.335Z,36.50
2018-04-19T10:09:56.864Z,38.10
2018-04-19T10:12:24.275Z,39.30
2018-04-19T10:14:51.798Z,38.70
2018-04-19T10:17:19.275Z,35.30
2018-04-19T10:19:46.746Z,31.80
2018-04-19T10:22:14.162Z,30.40
2018-04-19T10:24:41.590Z,30.60
2018-04-19T10:27:09.063Z,31.30
2018-04-19T10:29:36.482Z,29.80
2018-04-19T10:32:04.711Z,28.50
2018-04-19T10:34:32.139Z,28.50
2018-04-19T10:37:00.318Z,30.00
2018-04-19T10:39:27.747Z,29.60
2018-04-19T10:41:55.166Z,29.50
2018-04-19T10:44:23.395Z,28.50
2018-04-19T10:46:50.810Z,28.20
2018-04-19T10:49:18.234Z,27.80
2018-04-19T10:51:45.655Z,26.20
2018-04-19T10:54:13.217Z,28.00
2018-04-19T10:56:40.644Z,28.50
2018-04-19T10:59:08.103Z,28.10
2018-04-19T11:01:35.574Z,29.00
2018-04-19T11:04:02.993Z,29.40
2018-04-19T11:06:30.454Z,29.80
2018-04-19T11:08:58.830Z,30.60
2018-04-19T11:11:26.364Z,29.70
2018-04-19T11:13:53.834Z,28.30
2018-04-19T11:16:21.273Z,29.40
2018-04-19T11:18:48.774Z,28.30
2018-04-19T11:21:16.251Z,28.10
2018-04-19T11:23:43.675Z,28.80
2018-04-19T11:26:12.618Z,27.50
2018-04-19T11:28:40.038Z,27.50
2018-04-19T11:31:07.466Z,27.90
2018-04-19T11:33:34.932Z,26.80
2018-04-19T11:36:02.400Z,26.20
2018-04-19T11:38:29.866Z,26.30
2018-04-19T11:40:57.340Z,25.90
2018-04-19T11:43:24.803Z,26.30
2018-04-19T11:45:52.282Z,25.00
2018-04-19T11:48:19.751Z,25.10
2018-04-19T11:50:47.175Z,24.70
2018-04-19T11:53:14.607Z,24.40
2018-04-19T11:55:42.031Z,23.50
2018-04-19T11:58:10.238Z,24.60
2018-04-19T12:00:37.712Z,24.60
2018-04-19T12:03:05.179Z,23.60
2018-04-19T12:05:32.651Z,23.10
2018-04-19T12:08:00.118Z,24.80
2018-04-19T12:10:27.538Z,22.90
2018-04-19T12:12:54.966Z,24.50
2018-04-19T12:15:22.382Z,23.60
2018-04-19T12:17:49.909Z,23.90
2018-04-19T12:20:17.323Z,23.80
2018-04-19T12:22:44.746Z,24.20
2018-04-19T12:25:12.171Z,25.20
2018-04-19T12:27:40.370Z,23.90
2018-04-19T12:30:08.579Z,23.30
2018-04-19T12:32:36.001Z,23.20
2018-04-19T12:35:03.430Z,24.40
2018-04-19T12:37:30.975Z,24.00
2018-04-19T12:39:58.313Z,23.60
2018-04-19T12:42:25.833Z,23.60
2018-04-19T12:44:53.245Z,23.60
2018-04-19T12:47:20.675Z,24.30
2018-04-19T12:49:48.135Z,23.90
2018-04-19T12:52:15.564Z,23.80
2018-04-19T12:54:42.983Z,23.60
2018-04-19T12:57:10.423Z,22.90
2018-04-19T12:59:37.848Z,23.90
2018-04-19T13:02:05.263Z,24.40
2018-04-19T13:04:32.741Z,23.70
2018-04-19T13:07:00.156Z,23.80
2018-04-19T13:09:27.583Z,23.60
2018-04-19T13:11:55.027Z,24.40
2018-04-19T13:14:23.215Z,23.00
2018-04-19T13:16:51.436Z,23.80
2018-04-19T13:19:18.859Z,23.80
2018-04-19T13:21:47.096Z,24.30
2018-04-19T13:24:14.550Z,24.50
2018-04-19T13:26:41.966Z,23.00
2018-04-19T13:29:09.417Z,23.70
2018-04-19T13:31:36.830Z,23.90
2018-04-19T13:34:05.055Z,23.50
2018-04-19T13:36:32.473Z,23.50
2018-04-19T13:38:59.990Z,22.80
2018-04-19T13:41:27.422Z,23.60
2018-04-19T13:43:55.634Z,22.90
2018-04-19T13:46:23.834Z,22.70
2018-04-19T13:48:51.798Z,22.70
2018-04-19T13:51:19.217Z,22.70
2018-04-19T13:53:46.654Z,23.10
2018-04-19T13:56:14.071Z,23.90
2018-04-19T13:58:41.501Z,23.20
2018-04-19T14:01:08.926Z,23.00
2018-04-19T14:03:37.154Z,22.80
2018-04-19T14:06:04.569Z,22.70
2018-04-19T14:08:32.099Z,22.90
2018-04-19T14:10:59.599Z,23.10
2018-04-19T14:13:27.026Z,22.40
2018-04-19T14:15:54.441Z,22.20
2018-04-19T14:18:21.870Z,22.50
2018-04-19T14:20:49.366Z,23.60
2018-04-19T14:23:16.759Z,23.70
2018-04-19T14:25:44.301Z,21.90
2018-04-19T14:28:11.707Z,23.70
2018-04-19T14:30:39.214Z,23.30
2018-04-19T14:33:06.686Z,22.90
2018-04-19T14:35:34.160Z,22.90
2018-04-19T14:38:01.623Z,22.70
2018-04-19T14:40:29.038Z,23.10
2018-04-19T14:42:56.567Z,22.70
2018-04-19T14:45:23.983Z,22.50
2018-04-19T14:47:51.415Z,23.30
2018-04-19T14:50:18.871Z,23.00
2018-04-19T14:52:46.347Z,22.10
2018-04-19T14:55:13.813Z,21.80
2018-04-19T14:57:41.337Z,22.00
2018-04-19T15:00:08.711Z,21.60
2018-04-19T15:02:36.218Z,22.90
2018-04-19T15:05:03.651Z,21.50
2018-04-19T15:07:31.177Z,21.60
2018-04-19T15:09:58.620Z,22.40
2018-04-19T15:12:26.214Z,21.60
2018-04-19T15:14:53.647Z,21.40
2018-04-19T15:17:21.856Z,22.40
2018-04-19T15:19:49.284Z,22.40
2018-04-19T15:22:16.698Z,22.30
2018-04-19T15:24:44.166Z,21.90
2018-04-19T15:27:11.581Z,21.00
2018-04-19T15:29:39.007Z,21.90
2018-04-19T15:32:06.426Z,22.00
2018-04-19T15:34:33.946Z,22.10
2018-04-19T15:37:01.418Z,23.00
2018-04-19T15:39:28.847Z,22.70
2018-04-19T15:41:57.034Z,20.90
2018-04-19T15:44:25.255Z,21.40
2018-04-19T15:46:52.686Z,21.40
2018-04-19T15:49:20.194Z,22.40
2018-04-19T15:51:47.663Z,22.30
2018-04-19T15:54:15.123Z,22.50
2018-04-19T15:56:42.512Z,22.60
2018-04-19T15:59:09.939Z,22.00
2018-04-19T16:01:38.122Z,22.70
2018-04-19T16:04:06.319Z,22.00
2018-04-19T16:06:34.502Z,22.50
2018-04-19T16:09:02.694Z,23.70
2018-04-19T16:11:30.877Z,22.60
2018-04-19T16:13:59.070Z,21.60
2018-04-19T16:16:27.283Z,22.50
2018-04-19T16:18:55.677Z,22.50
2018-04-19T16:21:23.090Z,22.30
2018-04-19T16:23:50.519Z,22.90
2018-04-19T16:26:17.982Z,22.60
2018-04-19T16:28:48.621Z,22.60
2018-04-19T16:31:12.867Z,22.80
2018-04-19T16:33:40.289Z,23.60
2018-04-19T16:36:07.759Z,23.40
2018-04-19T16:38:35.239Z,23.60
2018-04-19T16:41:02.650Z,24.00
2018-04-19T16:43:30.054Z,24.30
2018-04-19T16:45:57.475Z,24.20
2018-04-19T16:48:24.997Z,24.90
2018-04-19T16:50:52.422Z,25.30
2018-04-19T16:53:19.855Z,25.80
2018-04-19T16:55:47.294Z,25.90
2018-04-19T16:58:15.462Z,26.90
2018-04-19T17:00:43.646Z,26.40
2018-04-19T17:03:11.863Z,26.70
2018-04-19T17:05:39.334Z,26.70
2018-04-19T17:08:07.009Z,27.10
2018-04-19T17:10:34.429Z,28.00
2018-04-19T17:13:01.854Z,28.40
2018-04-19T17:15:29.399Z,28.30
2018-04-19T17:17:57.605Z,28.60
2018-04-19T17:20:25.086Z,28.60
2018-04-19T17:22:52.555Z,28.80
2018-04-19T17:25:20.019Z,29.30
2018-04-19T17:27:47.439Z,30.40
2018-04-19T17:30:14.963Z,29.90
2018-04-19T17:32:42.387Z,29.90
2018-04-19T17:35:10.724Z,30.90
2018-04-19T17:37:38.881Z,31.20
2018-04-19T17:40:07.091Z,30.40
2018-04-19T17:42:34.566Z,30.30
2018-04-19T17:45:01.995Z,31.50
2018-04-19T17:47:30.178Z,33.70
2018-04-19T17:49:57.607Z,33.00
2018-04-19T17:52:25.031Z,33.10
2018-04-19T17:54:53.244Z,36.80
2018-04-19T17:57:20.670Z,36.80
2018-04-19T17:59:48.183Z,36.90
2018-04-19T18:02:15.602Z,36.70
2018-04-19T18:04:43.122Z,36.60
2018-04-19T18:07:10.695Z,38.20
2018-04-19T18:09:38.865Z,40.60
2018-04-19T18:12:07.068Z,40.80
2018-04-19T18:14:34.486Z,40.70
2018-04-19T18:17:02.015Z,40.80
2018-04-19T18:19:29.582Z,41.00
2018-04-19T18:21:57.767Z,41.20
2018-04-19T18:24:25.187Z,41.10
2018-04-19T18:26:52.706Z,41.90
2018-04-19T18:29:20.177Z,42.20
2018-04-19T18:31:47.659Z,42.60
2018-04-19T18:34:15.105Z,42.40
2018-04-19T18:36:42.586Z,42.70
2018-04-19T18:39:10.001Z,43.20
2018-04-19T18:41:37.528Z,43.10
2018-04-19T18:44:04.947Z,42.70
2018-04-19T18:46:32.378Z,42.60
2018-04-19T18:48:59.842Z,42.90
2018-04-19T18:51:27.303Z,43.70
2018-04-19T18:53:54.774Z,43.70
2018-04-19T18:56:22.245Z,44.20
2018-04-19T18:58:49.723Z,44.90
2018-04-19T19:01:17.143Z,46.20
2018-04-19T19:03:44.654Z,46.90
2018-04-19T19:06:12.070Z,47.80
2018-04-19T19:08:40.267Z,47.40
2018-04-19T19:11:07.778Z,47.40
2018-04-19T19:13:35.255Z,48.20
2018-04-19T19:16:10.077Z,48.40
2018-04-19T19:18:50.163Z,49.10
2018-04-19T19:21:17.635Z,49.10
2018-04-19T19:23:45.065Z,48.40
2018-04-19T19:26:12.479Z,48.60
2018-04-19T19:28:39.911Z,49.90
2018-04-19T19:31:08.102Z,50.60
2018-04-19T19:33:36.294Z,50.90
2018-04-19T19:36:04.475Z,50.80
2018-04-19T19:38:32.674Z,51.20
2018-04-19T19:41:00.155Z,51.10
2018-04-19T19:43:27.629Z,51.60
2018-04-19T19:45:55.091Z,52.10
2018-04-19T19:48:22.561Z,51.70
2018-04-19T19:50:49.985Z,51.10
2018-04-19T19:53:17.404Z,50.60
2018-04-19T19:55:44.937Z,50.70
2018-04-19T19:58:12.285Z,51.10
2018-04-19T20:00:39.810Z,51.50
2018-04-19T20:03:07.279Z,52.40
2018-04-19T20:05:34.709Z,53.40
2018-04-19T20:08:02.227Z,54.10
2018-04-19T20:10:29.895Z,54.60
2018-04-19T20:12:57.370Z,55.20
2018-04-19T20:15:24.799Z,55.80
2018-04-19T20:17:52.209Z,56.40
2018-04-19T20:20:19.639Z,57.20
2018-04-19T20:22:47.819Z,58.20
2018-04-19T20:25:15.251Z,58.00
2018-04-19T20:27:42.694Z,58.50
2018-04-19T20:30:10.167Z,57.80
2018-04-19T20:32:37.593Z,58.10
2018-04-19T20:35:05.018Z,58.30
2018-04-19T20:37:32.781Z,58.60
2018-04-19T20:40:00.251Z,58.80
2018-04-19T20:42:27.684Z,59.00
2018-04-19T20:44:55.195Z,59.00
2018-04-19T20:47:22.614Z,59.20
2018-04-19T20:49:50.808Z,59.90
2018-04-19T20:52:18.998Z,60.60
2018-04-19T20:54:47.205Z,60.70
2018-04-19T20:57:14.694Z,60.60
2018-04-19T20:59:42.121Z,60.40
2018-04-19T21:02:09.601Z,60.60
2018-04-19T21:04:36.966Z,60.90
2018-04-19T21:07:05.158Z,61.60
2018-04-19T21:09:33.347Z,61.80
2018-04-19T21:12:01.527Z,62.00
2018-04-19T21:14:29.955Z,61.90
2018-04-19T21:16:57.423Z,61.90
2018-04-19T21:19:24.859Z,62.30
2018-04-19T21:21:52.272Z,62.40
2018-04-19T21:24:19.694Z,62.50
2018-04-19T21:26:47.886Z,63.30
2018-04-19T21:29:16.079Z,63.20
2018-04-19T21:31:44.291Z,63.30
2018-04-19T21:34:11.708Z,63.20
2018-04-19T21:36:39.129Z,63.60
2018-04-19T21:39:06.602Z,63.40
2018-04-19T21:41:34.066Z,63.80
2018-04-19T21:44:01.493Z,64.00
2018-04-19T21:46:29.003Z,64.00
2018-04-19T21:48:56.427Z,64.20
2018-04-19T21:51:25.370Z,65.20
2018-04-19T21:53:52.847Z,65.00
2018-04-19T21:56:20.332Z,65.60
2018-04-19T21:58:47.786Z,66.00
2018-04-19T22:01:15.222Z,66.60
2018-04-19T22:03:42.735Z,67.10
2018-04-19T22:06:10.201Z,67.50
2018-04-19T22:08:37.668Z,67.60
2018-04-19T22:11:05.090Z,67.90
2018-04-19T22:13:33.279Z,68.40
2018-04-19T22:16:00.803Z,68.30
2018-04-19T22:18:28.214Z,68.70
2018-04-19T22:20:55.741Z,68.80
2018-04-19T22:23:23.158Z,69.20
2018-04-19T22:25:51.350Z,69.70
2018-04-19T22:28:18.770Z,69.60
2018-04-19T22:30:46.207Z,69.50
2018-04-19T22:33:14.394Z,70.70
2018-04-19T22:35:42.588Z,70.70
2018-04-19T22:38:10.006Z,70.60
2018-04-19T22:40:37.426Z,70.40
2018-04-19T22:43:04.850Z,70.50
2018-04-19T22:45:32.280Z,70.50
2018-04-19T22:47:59.882Z,70.70
2018-04-19T22:50:27.303Z,71.00
2018-04-19T22:52:54.723Z,70.90
2018-04-19T22:55:22.255Z,70.90
2018-04-19T22:57:49.675Z,71.20
2018-04-19T23:00:17.104Z,71.70
2018-04-19T23:02:44.563Z,71.20
2018-04-19T23:05:13.863Z,71.70
2018-04-19T23:07:42.063Z,71.80
2018-04-19T23:10:09.498Z,71.80
2018-04-19T23:12:36.914Z,72.00
2018-04-19T23:15:04.347Z,71.90
2018-04-19T23:17:32.545Z,72.10
2018-04-19T23:20:00.723Z,71.80
2018-04-19T23:22:34.885Z,71.50
2018-04-19T23:25:02.331Z,71.50
2018-04-19T23:27:29.818Z,71.10
2018-04-19T23:29:57.254Z,71.20
2018-04-19T23:32:25.444Z,71.50
2018-04-19T23:34:53.667Z,71.30
2018-04-19T23:37:21.078Z,71.30
2018-04-19T23:39:49.261Z,71.70
2018-04-19T23:42:16.699Z,71.80
2018-04-19T23:44:44.113Z,71.60
2018-04-19T23:47:12.310Z,72.30
2018-04-19T23:49:40.490Z,71.90
2018-04-19T23:52:08.682Z,71.80
2018-04-19T23:54:36.898Z,71.70
2018-04-19T23:57:04.333Z,71.70
2018-04-19T23:59:31.746Z,71.60
